• Join FlightAware (Why Join?)
  • Login
  • US Flag 
07:22AM EDT


 

Airport Tracker/Info


-or-


 

Live Flight TrackerFlight Track Log ✈ UCA3596 ✈ 06-Oct-2013 ✈ KBGM - KIAD

Flight Track Log - Related Links

Times and Time Zones

All times are in EDT time to prevent confusion due to time zone crossing. See the UCA3596 flight status page for this flight to view local times or setup timezone preferences in your user account.

Time Position Orientation Groundspeed Altitude Reporting Facility
EDT Latitude Longitude Course Direction KTS MPH feet Rate Location/Type
02:43PM 42.1692 -75.9833 211° Southwest 139 160 2,900  Level New York Center
02:44PM 42.1383 -76.0200 221° Southwest 146 168 4,000 1,320 Climbing New York Center
02:45PM 42.1014 -76.0592 218° Southwest 165 190 5,600 1,440 Climbing New York Center
02:46PM 42.0664 -76.0925 215° Southwest 165 190 6,900 1,200 Climbing New York Center
02:47PM 42.0336 -76.1264 218° Southwest 165 190 8,100 1,380 Climbing New York Center
02:48PM 41.9883 -76.1644 212° Southwest 176 203 9,700 1,320 Climbing New York Center
02:49PM 41.8157 -76.1663 211° Southwest  Level Estimated
02:49PM 41.9492 -76.2003 214° Southwest 176 203 10,800  Level New York Center
02:50PM 41.9164 -76.2339 217° Southwest 176 203 12,000 900 Climbing New York Center
02:51PM 41.8750 -76.2722 215° Southwest 176 203 12,700 720 Climbing New York Center
02:52PM 41.8250 -76.3181 214° Southwest 193 222 13,500 600 Climbing New York Center
02:53PM 41.7750 -76.3642 215° Southwest 213 245 14,000 180 Climbing New York Center
02:54PM 41.7225 -76.4153 216° Southwest 228 262 13,900 -60 Descending New York Center
02:55PM 41.6725 -76.4639 216° Southwest 246 283 13,900  Level New York Center
02:56PM 41.6158 -76.5144 214° Southwest 259 298 13,900  Level New York Center
02:57PM 41.5483 -76.5753 214° Southwest 259 298 14,000  Climbing New York Center
02:58PM 41.4914 -76.6311 216° Southwest 259 298 14,000  Level New York Center
02:59PM 41.4389 -76.6792 214° Southwest 254 292 14,000  Level New York Center
03:00PM 41.3842 -76.7353 218° Southwest 254 292 14,000  Level New York Center
03:01PM 41.3233 -76.7825 210° Southwest 254 292 14,000  Level New York Center
03:02PM 41.2539 -76.7956 188° South 249 287 14,000  Level New York Center
03:03PM 41.1822 -76.8114 189° South 254 292 14,000  Level New York Center
03:04PM 41.1150 -76.8217 187° South 254 292 14,000  Level New York Center
03:05PM 41.0436 -76.8347 188° South 259 298 14,000  Level New York Center
03:06PM 40.9742 -76.8506 190° South 259 298 14,000  Level New York Center
03:07PM 40.8983 -76.8658 189° South 259 298 14,000  Level New York Center
03:08PM 40.8289 -76.8786 188° South 259 298 14,000  Level New York Center
03:09PM 40.7614 -76.8947 190° South 259 298 14,000  Level New York Center
03:10PM 40.6914 -76.9156 193° South 259 298 14,000  Level New York Center
03:11PM 40.6256 -76.9372 194° South 259 298 14,000  Level New York Center
03:12PM 40.5578 -76.9583 193° South 259 298 14,000 -120 Level New York Center
03:13PM 40.4922 -76.9797 194° South 254 292 13,800 -600 Descending New York Center
03:14PM 40.4222 -77.0008 193° South 254 292 12,900 -840 Descending New York Center
03:16PM 40.3000 -77.0333 191° South 257 296 11,500 -840 Descending Potomac TRACON
03:17PM 40.2333 -77.0333 180° South 242 278 10,700 -780 Descending Potomac TRACON
03:18PM 40.1667 -77.0500 191° South 238 274 10,000 -420 Descending Potomac TRACON
03:19PM 40.1000 -77.0833 201° Southwest 232 267 9,900 -540 Descending Potomac TRACON
03:20PM 40.0500 -77.1000 194° South 245 282 9,000 -480 Descending Potomac TRACON
03:21PM 39.9833 -77.1167 191° South 241 277 9,000  Level Potomac TRACON
03:22PM 39.9167 -77.1333 191° South 239 275 9,000  Level Potomac TRACON
03:23PM 39.8333 -77.1333 180° South 237 273 9,000 -180 Level Potomac TRACON
03:24PM 39.7833 -77.1333 180° South 239 275 8,700 -480 Descending Potomac TRACON
03:25PM 39.7333 -77.2000 226° Southwest 247 284 8,100 -420 Descending Potomac TRACON
03:26PM 39.6833 -77.2500 218° Southwest 243 280 8,000 -300 Descending Potomac TRACON
03:27PM 39.6500 -77.3167 237° Southwest 238 274 7,600 -720 Descending Potomac TRACON
03:28PM 39.5833 -77.3333 191° South 229 264 6,600 -840 Descending Potomac TRACON
03:29PM 39.5500 -77.4000 237° Southwest 228 262 6,000 -600 Descending Potomac TRACON
03:30PM 39.5000 -77.4500 218° Southwest 230 265 5,500 -840 Descending Potomac TRACON
03:31PM 39.4333 -77.4333 169° South 236 272 4,400 -780 Descending Potomac TRACON
03:32PM 39.3667 -77.4333 180° South 216 249 4,000 -240 Descending Potomac TRACON
03:33PM 39.3167 -77.4333 180° South 191 220 4,000 -240 Level Potomac TRACON
03:34PM 39.2667 -77.4333 180° South 193 222 3,600 -540 Descending Potomac TRACON
03:35PM 39.2167 -77.4333 180° South 165 190 3,000 -300 Descending Potomac TRACON
03:36PM 39.1667 -77.4333 180° South 172 198 3,000  Level Potomac TRACON
03:37PM 39.1333 -77.4333 180° South 162 186 3,000 -240 Level Potomac TRACON
03:38PM 39.0833 -77.4333 180° South 166 191 2,600 -600 Descending Potomac TRACON
03:39PM 39.0333 -77.4333 180° South 157 181 1,800 -720 Descending Potomac TRACON
03:40PM 39.0000 -77.4333 180° South 136 157 1,200 -600 Descending Potomac TRACON